createdAt,value
2023-02-07T00:00:28.827Z,90.39
2023-02-07T00:01:28.805Z,90.28
2023-02-07T00:02:28.758Z,90.43
2023-02-07T00:03:28.763Z,90.64
2023-02-07T00:04:28.736Z,90.53
2023-02-07T00:05:28.747Z,90.70
2023-02-07T00:06:28.728Z,90.75
2023-02-07T00:07:28.733Z,90.75
2023-02-07T00:08:28.721Z,90.43
2023-02-07T00:09:28.735Z,90.43
2023-02-07T00:10:28.670Z,90.33
2023-02-07T00:11:28.682Z,90.64
2023-02-07T00:12:28.721Z,90.95
2023-02-07T00:13:28.704Z,90.33
2023-02-07T00:14:28.702Z,90.64
2023-02-07T00:15:28.642Z,90.22
2023-02-07T00:16:28.723Z,90.85
2023-02-07T00:17:28.638Z,90.43
2023-02-07T00:19:00.637Z,90.95
2023-02-07T00:19:28.655Z,90.64
2023-02-07T00:20:28.628Z,90.64
2023-02-07T00:21:28.616Z,90.58
2023-02-07T00:22:28.724Z,90.33
2023-02-07T00:23:28.574Z,90.89
2023-02-07T00:24:28.582Z,90.47
2023-02-07T00:25:29.496Z,91.00
2023-02-07T00:26:28.587Z,91.00
2023-02-07T00:27:28.587Z,90.89
2023-02-07T00:28:28.730Z,91.87
2023-02-07T00:29:28.565Z,91.46
2023-02-07T00:30:28.575Z,91.46
2023-02-07T00:31:28.745Z,91.87
2023-02-07T00:32:28.548Z,92.40
2023-02-07T00:33:28.639Z,92.40
2023-02-07T00:34:28.518Z,92.19
2023-02-07T00:35:28.497Z,92.13
2023-02-07T00:36:28.500Z,92.13
2023-02-07T00:37:28.493Z,92.23
2023-02-07T00:38:28.484Z,92.65
2023-02-07T00:39:28.502Z,92.33
2023-02-07T00:40:28.504Z,92.44
2023-02-07T00:41:28.497Z,93.11
2023-02-07T00:42:28.456Z,92.75
2023-02-07T00:43:30.145Z,92.79
2023-02-07T00:44:29.507Z,92.79
2023-02-07T00:45:28.417Z,93.01
2023-02-07T00:46:28.559Z,93.01
2023-02-07T00:47:28.409Z,92.85
2023-02-07T00:48:28.410Z,92.90
2023-02-07T00:49:28.430Z,92.69
2023-02-07T00:50:28.372Z,92.69
2023-02-07T00:51:28.408Z,92.44
2023-02-07T00:52:28.382Z,93.01
2023-02-07T00:53:28.380Z,92.79
2023-02-07T00:54:28.411Z,92.79
2023-02-07T00:55:28.383Z,93.21
2023-02-07T00:56:28.382Z,93.63
2023-02-07T00:57:28.326Z,93.63
2023-02-07T00:58:28.349Z,93.63
2023-02-07T00:59:28.345Z,93.67
2023-02-07T01:00:28.346Z,93.01
2023-02-07T01:01:28.445Z,92.69
2023-02-07T01:02:28.303Z,92.69
2023-02-07T01:03:28.293Z,93.11
2023-02-07T01:04:28.336Z,92.79
2023-02-07T01:05:28.488Z,93.11
2023-02-07T01:06:28.286Z,93.63
2023-02-07T01:07:28.278Z,93.63
2023-02-07T01:08:28.276Z,93.32
2023-02-07T01:09:28.268Z,93.74
2023-02-07T01:10:28.306Z,93.32
2023-02-07T01:11:28.274Z,93.42
2023-02-07T01:12:28.252Z,93.11
2023-02-07T01:13:28.218Z,93.21
2023-02-07T01:14:28.256Z,93.11
2023-02-07T01:15:28.369Z,93.42
2023-02-07T01:16:28.260Z,92.69
2023-02-07T01:17:28.231Z,93.01
2023-02-07T01:18:28.229Z,92.79
2023-02-07T01:19:28.183Z,92.90
2023-02-07T01:20:28.176Z,93.21
2023-02-07T01:21:28.193Z,93.11
2023-02-07T01:22:28.171Z,93.26
2023-02-07T01:23:28.145Z,93.01
2023-02-07T01:24:28.133Z,92.69
2023-02-07T01:25:28.124Z,92.58
2023-02-07T01:26:28.194Z,93.11
2023-02-07T01:27:28.930Z,92.90
2023-02-07T01:28:28.133Z,92.69
2023-02-07T01:29:28.092Z,92.79
2023-02-07T01:30:28.145Z,92.38
2023-02-07T01:31:28.189Z,92.79
2023-02-07T01:32:28.112Z,93.11
2023-02-07T01:33:28.096Z,92.79
2023-02-07T01:34:28.061Z,92.79
2023-02-07T01:35:28.087Z,92.94
2023-02-07T01:36:28.108Z,92.94
2023-02-07T01:37:28.090Z,92.79
2023-02-07T01:38:28.048Z,92.90
2023-02-07T01:39:28.086Z,92.73
2023-02-07T01:40:28.055Z,93.67
2023-02-07T01:41:28.046Z,93.78
2023-02-07T01:42:27.999Z,93.26
2023-02-07T01:43:28.002Z,93.57
2023-02-07T01:44:28.109Z,93.71
2023-02-07T01:45:27.980Z,93.93
2023-02-07T01:46:28.074Z,94.13
2023-02-07T01:47:27.976Z,93.93
2023-02-07T01:48:28.032Z,93.93
2023-02-07T01:49:27.981Z,94.45
2023-02-07T01:50:27.977Z,94.45
2023-02-07T01:51:27.962Z,94.81
2023-02-07T01:52:27.920Z,94.70
2023-02-07T01:53:27.941Z,94.56
2023-02-07T01:54:27.932Z,94.38
2023-02-07T01:55:27.968Z,94.38
2023-02-07T01:56:32.120Z,95.33
2023-02-07T01:57:28.888Z,95.12
2023-02-07T01:58:27.946Z,94.81
2023-02-07T01:59:27.893Z,94.91
2023-02-07T02:00:27.868Z,95.06
2023-02-07T02:01:27.921Z,95.58
2023-02-07T02:02:27.910Z,95.68
2023-02-07T02:03:27.824Z,95.33
2023-02-07T02:04:27.868Z,95.68
2023-02-07T02:05:27.893Z,95.37
2023-02-07T02:06:27.823Z,95.37
2023-02-07T02:07:28.424Z,95.31
2023-02-07T02:08:27.795Z,95.58
2023-02-07T02:09:27.806Z,95.42
2023-02-07T02:10:27.814Z,95.52
2023-02-07T02:11:28.507Z,95.84
2023-02-07T02:12:28.776Z,95.94
2023-02-07T02:13:27.770Z,95.73
2023-02-07T02:14:27.772Z,95.94
2023-02-07T02:15:27.756Z,95.94
2023-02-07T02:16:27.797Z,96.67
2023-02-07T02:17:27.775Z,96.47
2023-02-07T02:18:27.744Z,96.36
2023-02-07T02:19:27.736Z,96.51
2023-02-07T02:20:27.722Z,96.78
2023-02-07T02:21:59.643Z,96.19
2023-02-07T02:22:27.720Z,96.51
2023-02-07T02:23:27.761Z,96.30
2023-02-07T02:24:27.703Z,96.41
2023-02-07T02:25:27.676Z,96.41
2023-02-07T02:26:27.717Z,96.77
2023-02-07T02:27:27.710Z,96.41
2023-02-07T02:28:27.652Z,96.13
2023-02-07T02:29:27.644Z,97.29
2023-02-07T02:30:27.668Z,97.18
2023-02-07T02:31:27.675Z,97.08
2023-02-07T02:32:27.647Z,97.18
2023-02-07T02:33:27.705Z,96.97
2023-02-07T02:34:27.631Z,97.18
2023-02-07T02:35:27.610Z,97.71
2023-02-07T02:36:27.605Z,97.71
2023-02-07T02:37:27.604Z,97.71
2023-02-07T02:38:27.630Z,97.50
2023-02-07T02:39:27.592Z,97.50
2023-02-07T02:40:27.559Z,97.81
2023-02-07T02:41:27.569Z,97.50
2023-02-07T02:42:27.562Z,97.86
2023-02-07T02:43:27.569Z,97.96
2023-02-07T02:44:27.544Z,98.28
2023-02-07T02:45:27.539Z,97.81
2023-02-07T02:46:27.583Z,97.54
2023-02-07T02:47:27.550Z,97.64
2023-02-07T02:48:27.515Z,97.96
2023-02-07T02:49:27.523Z,98.28
2023-02-07T02:50:27.491Z,98.17
2023-02-07T02:51:27.510Z,97.96
2023-02-07T02:52:40.734Z,98.17
2023-02-07T02:53:29.470Z,98.17
2023-02-07T02:54:27.550Z,98.17
2023-02-07T02:55:27.505Z,98.00
2023-02-07T02:56:27.499Z,97.96
2023-02-07T02:57:27.461Z,98.00
2023-02-07T02:58:27.457Z,98.00
2023-02-07T02:59:27.440Z,98.22
2023-02-07T03:00:27.456Z,98.22
2023-02-07T03:01:27.503Z,98.00
2023-02-07T03:02:27.404Z,97.90
2023-02-07T03:03:27.420Z,98.00
2023-02-07T03:04:27.403Z,98.00
2023-02-07T03:05:27.538Z,98.00
2023-02-07T03:06:27.388Z,98.00
2023-02-07T03:07:27.379Z,98.22
2023-02-07T03:08:27.381Z,98.00
2023-02-07T03:09:27.361Z,98.07
2023-02-07T03:10:28.371Z,98.00
2023-02-07T03:11:27.981Z,97.90
2023-02-07T03:12:27.372Z,98.16
2023-02-07T03:13:27.339Z,97.90
2023-02-07T03:14:27.319Z,97.90
2023-02-07T03:15:27.340Z,97.94
2023-02-07T03:16:27.322Z,98.00
2023-02-07T03:17:27.319Z,98.16
2023-02-07T03:18:27.285Z,98.11
2023-02-07T03:19:27.281Z,98.16
2023-02-07T03:20:27.410Z,97.58
2023-02-07T03:21:27.297Z,98.16
2023-02-07T03:22:27.264Z,98.16
2023-02-07T03:23:27.253Z,97.90
2023-02-07T03:24:27.233Z,98.26
2023-02-07T03:25:27.249Z,98.16
2023-02-07T03:26:27.284Z,98.05
2023-02-07T03:27:27.226Z,98.47
2023-02-07T03:28:27.263Z,98.68
2023-02-07T03:29:27.187Z,99.00
2023-02-07T03:30:27.225Z,99.52
2023-02-07T03:31:27.277Z,99.41
2023-02-07T03:32:27.194Z,99.63
2023-02-07T03:33:27.182Z,99.48
2023-02-07T03:34:27.173Z,99.37
2023-02-07T03:35:27.193Z,99.27
2023-02-07T03:36:27.161Z,99.27
2023-02-07T03:37:27.157Z,98.74
2023-02-07T03:38:27.190Z,98.95
2023-02-07T03:39:27.166Z,99.00
2023-02-07T03:40:27.115Z,99.05
2023-02-07T03:41:27.108Z,98.74
2023-02-07T03:42:27.093Z,98.95
2023-02-07T03:43:27.101Z,98.89
2023-02-07T03:44:27.106Z,99.00
2023-02-07T03:45:27.111Z,99.41
2023-02-07T03:46:27.106Z,99.41
2023-02-07T03:47:27.093Z,99.10
2023-02-07T04:03:06.058Z,99.99
2023-02-07T04:04:06.045Z,99.99
2023-02-07T04:05:06.042Z,99.99
2023-02-07T04:06:06.038Z,99.99
2023-02-07T04:07:07.738Z,99.99
2023-02-07T04:08:07.153Z,99.99
2023-02-07T04:09:07.170Z,99.99
2023-02-07T04:10:07.166Z,99.82
2023-02-07T04:11:07.182Z,99.99
2023-02-07T04:12:07.186Z,99.99
2023-02-07T04:13:07.155Z,99.93
2023-02-07T04:14:07.103Z,99.99
2023-02-07T04:15:07.120Z,99.99
2023-02-07T04:16:07.161Z,99.78
2023-02-07T04:17:07.112Z,99.99
2023-02-07T04:18:07.075Z,99.88
2023-02-07T04:19:07.074Z,99.99
2023-02-07T04:20:07.075Z,99.99
2023-02-07T04:21:07.135Z,99.93
2023-02-07T04:22:07.068Z,99.93
2023-02-07T04:23:07.072Z,99.99
2023-02-07T04:24:07.072Z,99.99
2023-02-07T04:25:07.046Z,99.99
2023-02-07T04:26:07.134Z,99.99
2023-02-07T04:27:07.027Z,99.93
2023-02-07T04:28:07.075Z,99.99
2023-02-07T04:29:07.075Z,99.93
2023-02-07T04:30:07.048Z,99.99
2023-02-07T04:31:07.006Z,99.99
2023-02-07T04:32:07.078Z,99.93
2023-02-07T04:33:06.994Z,99.99
2023-02-07T04:34:06.977Z,99.93
2023-02-07T04:35:06.970Z,99.99
2023-02-07T04:36:06.965Z,99.82
2023-02-07T04:37:06.949Z,99.99
2023-02-07T04:38:06.968Z,99.99
2023-02-07T04:39:06.959Z,99.99
2023-02-07T04:40:06.928Z,99.99
2023-02-07T04:41:06.929Z,99.99
2023-02-07T04:42:06.909Z,99.72
2023-02-07T04:43:06.906Z,99.40
2023-02-07T04:44:06.933Z,99.51
2023-02-07T04:45:06.865Z,99.36
2023-02-07T04:46:06.940Z,98.72
2023-02-07T04:47:06.859Z,99.04
2023-02-07T04:48:06.878Z,98.94
2023-02-07T04:49:06.870Z,98.94
2023-02-07T04:50:06.899Z,98.83
2023-02-07T04:51:06.873Z,99.08
2023-02-07T04:52:06.837Z,99.25
2023-02-07T04:53:06.831Z,98.77
2023-02-07T04:54:06.860Z,98.98
2023-02-07T04:55:06.842Z,98.88
2023-02-07T04:56:06.813Z,98.88
2023-02-07T04:57:06.832Z,99.40
2023-02-07T04:58:06.817Z,99.40
2023-02-07T04:59:06.814Z,99.30
2023-02-07T05:00:06.788Z,99.25
2023-02-07T05:01:06.797Z,99.30
2023-02-07T05:02:06.757Z,99.51
2023-02-07T05:03:06.765Z,98.77
2023-02-07T05:04:06.827Z,98.94
2023-02-07T05:05:06.738Z,98.88
2023-02-07T05:06:06.722Z,99.08
2023-02-07T05:07:06.729Z,98.77
2023-02-07T05:08:06.712Z,98.98
2023-02-07T05:09:06.719Z,99.25
2023-02-07T05:10:06.754Z,99.40
2023-02-07T05:11:06.693Z,99.08
2023-02-07T05:12:06.681Z,99.72
2023-02-07T05:13:06.714Z,99.19
2023-02-07T05:14:06.706Z,99.72
2023-02-07T05:15:06.705Z,99.19
2023-02-07T05:16:06.713Z,99.19
2023-02-07T05:17:06.649Z,99.44
2023-02-07T05:18:06.658Z,99.30
2023-02-07T05:19:06.657Z,99.98
2023-02-07T05:20:06.632Z,99.76
2023-02-07T05:21:06.649Z,99.24
2023-02-07T05:22:06.629Z,99.76
2023-02-07T05:23:06.633Z,99.55
2023-02-07T05:24:06.603Z,99.76
2023-02-07T05:25:06.604Z,99.24
2023-02-07T05:26:06.615Z,99.44
2023-02-07T05:27:06.593Z,99.66
2023-02-07T05:28:06.644Z,99.76
2023-02-07T05:29:06.570Z,99.99
2023-02-07T05:30:06.547Z,99.99
2023-02-07T05:31:06.692Z,99.87
2023-02-07T05:32:06.982Z,99.98
2023-02-07T05:33:07.536Z,99.99
2023-02-07T05:34:06.543Z,99.99
2023-02-07T05:35:06.551Z,99.91
2023-02-07T05:36:06.521Z,99.99
2023-02-07T05:37:06.506Z,99.99
2023-02-07T05:38:06.521Z,99.99
2023-02-07T05:39:06.496Z,99.99
2023-02-07T05:40:06.539Z,99.99
2023-02-07T05:41:06.474Z,99.99
2023-02-07T05:42:06.482Z,99.99
2023-02-07T05:43:06.462Z,99.91
2023-02-07T05:44:06.524Z,99.99
2023-02-07T05:45:06.452Z,99.99
2023-02-07T05:46:06.516Z,99.85
2023-02-07T05:47:06.453Z,99.99
2023-02-07T05:48:06.483Z,99.99
2023-02-07T05:49:06.422Z,99.99
2023-02-07T05:50:06.427Z,99.99
2023-02-07T05:51:06.405Z,99.91
2023-02-07T05:52:06.389Z,99.91
2023-02-07T05:53:06.423Z,99.99
2023-02-07T05:54:06.839Z,99.99
2023-02-07T05:55:07.343Z,99.99
2023-02-07T05:56:06.388Z,99.99
2023-02-07T05:57:06.412Z,99.99
2023-02-07T05:58:06.445Z,99.99
2023-02-07T05:59:06.343Z,99.99
2023-02-07T06:00:06.356Z,99.81
2023-02-07T06:01:06.317Z,99.99
2023-02-07T06:02:06.400Z,99.99
2023-02-07T06:03:06.387Z,99.99
2023-02-07T06:04:06.335Z,99.99
2023-02-07T06:05:06.314Z,99.99
2023-02-07T06:06:06.310Z,99.76
2023-02-07T06:07:06.288Z,99.91
2023-02-07T06:08:06.273Z,99.81
2023-02-07T06:09:06.276Z,99.99
2023-02-07T06:10:06.269Z,99.28
2023-02-07T06:11:06.238Z,99.39
2023-02-07T06:12:06.232Z,99.39
2023-02-07T06:13:06.222Z,99.55
2023-02-07T06:14:06.231Z,99.28
2023-02-07T06:15:06.214Z,99.39
2023-02-07T06:16:06.290Z,99.34
2023-02-07T06:17:06.199Z,99.60
2023-02-07T06:18:20.263Z,99.49
2023-02-07T06:19:12.676Z,99.44
2023-02-07T06:20:12.391Z,99.49
2023-02-07T06:21:07.173Z,99.39
2023-02-07T06:22:07.415Z,99.60
2023-02-07T06:23:07.245Z,99.49
2023-02-07T06:24:07.153Z,99.81
2023-02-07T06:25:07.421Z,99.49
2023-02-07T06:26:07.645Z,99.60
2023-02-07T06:27:08.664Z,99.49
2023-02-07T06:28:06.793Z,99.28
2023-02-07T06:29:07.142Z,99.33
2023-02-07T06:30:07.191Z,99.70
2023-02-07T06:31:07.225Z,99.28
2023-02-07T06:32:06.485Z,99.54
2023-02-07T06:33:07.292Z,99.96
2023-02-07T06:34:08.207Z,99.96
2023-02-07T06:35:07.600Z,99.75
2023-02-07T06:36:09.226Z,99.96
2023-02-07T06:37:06.159Z,99.54
2023-02-07T06:38:06.136Z,99.85
2023-02-07T06:39:06.186Z,99.99
2023-02-07T06:40:06.064Z,99.90
2023-02-07T06:41:06.055Z,99.99
2023-02-07T06:42:06.128Z,99.99
2023-02-07T06:43:08.755Z,99.99
2023-02-07T06:44:06.138Z,99.99
2023-02-07T06:45:06.055Z,99.99
2023-02-07T06:46:06.094Z,99.99
2023-02-07T06:47:06.109Z,99.99
2023-02-07T06:48:06.125Z,99.99
2023-02-07T06:49:06.041Z,99.99
2023-02-07T06:50:07.621Z,99.99
2023-02-07T06:51:06.058Z,99.99
2023-02-07T06:52:06.016Z,99.99
2023-02-07T06:53:06.514Z,99.99
2023-02-07T06:54:05.974Z,99.85
2023-02-07T06:55:07.003Z,99.99
2023-02-07T06:56:05.974Z,99.99
2023-02-07T06:57:06.388Z,99.99
2023-02-07T06:58:05.942Z,99.99
2023-02-07T06:59:05.995Z,99.99
2023-02-07T07:00:06.593Z,99.99
2023-02-07T07:01:05.945Z,99.99
2023-02-07T07:02:05.992Z,99.90
2023-02-07T07:03:06.981Z,99.99
2023-02-07T07:04:05.981Z,99.99
2023-02-07T07:05:05.893Z,99.99
2023-02-07T07:06:06.768Z,99.99
2023-02-07T07:07:05.979Z,99.99
2023-02-07T07:08:05.949Z,99.99
2023-02-07T07:09:06.898Z,99.99
2023-02-07T07:10:05.942Z,99.99
2023-02-07T07:11:05.921Z,99.99
2023-02-07T07:12:05.881Z,99.99
2023-02-07T07:13:05.871Z,99.99
2023-02-07T07:14:05.866Z,99.99
2023-02-07T07:15:05.848Z,99.99
2023-02-07T07:16:05.874Z,99.99
2023-02-07T07:17:05.812Z,99.99
2023-02-07T07:18:05.838Z,99.99
2023-02-07T07:19:05.859Z,99.99
2023-02-07T07:20:05.849Z,99.96
2023-02-07T07:21:05.907Z,99.54
2023-02-07T07:22:37.657Z,99.85
2023-02-07T07:23:05.731Z,99.99
2023-02-07T07:24:05.706Z,99.75
2023-02-07T07:25:05.705Z,99.75
2023-02-07T07:26:05.721Z,99.99
2023-02-07T07:27:05.691Z,99.99
2023-02-07T07:28:05.765Z,99.99
2023-02-07T07:29:05.759Z,99.99
2023-02-07T07:30:05.670Z,99.36
2023-02-07T07:31:05.828Z,98.43
2023-02-07T07:32:05.779Z,97.08
2023-02-07T07:33:05.731Z,95.56
2023-02-07T07:34:06.645Z,94.31
2023-02-07T07:35:05.635Z,93.21
2023-02-07T07:36:06.066Z,92.58
2023-02-07T07:37:05.643Z,92.61
2023-02-07T07:38:05.603Z,91.09
2023-02-07T07:39:05.622Z,90.47
2023-02-07T07:40:05.695Z,91.27
2023-02-07T07:41:05.636Z,89.90
2023-02-07T07:42:05.649Z,89.28
2023-02-07T07:43:05.580Z,88.82
2023-02-07T07:44:05.875Z,88.50
2023-02-07T07:45:05.567Z,88.71
2023-02-07T07:46:05.554Z,88.19
2023-02-07T07:47:05.554Z,87.88
2023-02-07T07:48:05.559Z,88.09
2023-02-07T07:49:05.546Z,87.63
2023-02-07T07:50:05.533Z,87.13
2023-02-07T07:51:05.545Z,86.25
2023-02-07T07:52:06.530Z,85.38
2023-02-07T07:53:05.696Z,84.99
2023-02-07T07:54:06.550Z,84.33
2023-02-07T07:55:05.474Z,82.76
2023-02-07T07:56:05.474Z,83.15
2023-02-07T07:57:05.472Z,83.29
2023-02-07T07:58:05.473Z,84.55
2023-02-07T07:59:08.771Z,84.50
2023-02-07T08:00:07.434Z,84.30
2023-02-07T08:01:05.460Z,84.34
2023-02-07T08:02:05.459Z,83.88
2023-02-07T08:03:05.451Z,84.44
2023-02-07T08:04:05.447Z,84.86
2023-02-07T08:05:05.421Z,84.44
2023-02-07T08:06:05.404Z,84.58
2023-02-07T08:07:05.389Z,84.73
2023-02-07T08:08:05.386Z,85.86
2023-02-07T08:09:05.402Z,84.47
2023-02-07T08:10:05.387Z,83.39
2023-02-07T08:11:05.366Z,83.39
2023-02-07T08:12:05.362Z,83.18
2023-02-07T08:13:05.344Z,82.90
2023-02-07T08:14:05.362Z,84.05
2023-02-07T08:15:05.333Z,84.08
2023-02-07T08:16:05.361Z,82.72
2023-02-07T08:17:05.303Z,82.41
2023-02-07T08:18:06.330Z,82.20
2023-02-07T08:19:05.320Z,82.31
2023-02-07T08:20:05.310Z,82.10
2023-02-07T08:21:05.332Z,82.59
2023-02-07T08:22:05.280Z,82.42
2023-02-07T08:23:05.276Z,82.97
2023-02-07T08:24:05.257Z,82.14
2023-02-07T08:25:05.265Z,82.14
2023-02-07T08:26:05.275Z,82.20
2023-02-07T08:27:05.282Z,81.15
2023-02-07T08:28:05.298Z,78.86
2023-02-07T08:29:05.346Z,77.69
2023-02-07T08:30:05.315Z,79.66
2023-02-07T08:31:05.298Z,79.57
2023-02-07T08:32:05.221Z,81.37
2023-02-07T08:33:05.201Z,79.73
2023-02-07T08:34:05.199Z,78.86
2023-02-07T08:35:05.188Z,78.00
2023-02-07T08:36:05.165Z,78.66
2023-02-07T08:37:05.158Z,77.79
2023-02-07T08:38:05.185Z,77.20
2023-02-07T08:39:06.651Z,78.34
2023-02-07T08:40:06.124Z,77.83
2023-02-07T08:41:05.132Z,77.69
2023-02-07T08:42:05.137Z,78.87
2023-02-07T08:43:05.106Z,79.70
2023-02-07T08:44:05.125Z,79.46
2023-02-07T08:45:05.208Z,79.03
2023-02-07T08:46:05.160Z,76.09
2023-02-07T08:47:05.121Z,75.26
2023-02-07T08:48:06.076Z,74.49
2023-02-07T08:49:05.088Z,75.05
2023-02-07T08:50:05.057Z,76.02
2023-02-07T08:51:05.062Z,77.09
2023-02-07T08:52:05.083Z,76.99
2023-02-07T08:53:05.073Z,77.09
2023-02-07T08:54:05.282Z,76.99
2023-02-07T08:55:05.030Z,77.79
2023-02-07T08:56:05.021Z,76.68
2023-02-07T08:57:05.034Z,76.68
2023-02-07T08:58:05.033Z,75.78
2023-02-07T08:59:05.021Z,75.71
2023-02-07T09:00:04.974Z,73.11
2023-02-07T09:01:05.016Z,72.22
2023-02-07T09:02:05.007Z,72.69
2023-02-07T09:03:04.991Z,74.18
2023-02-07T09:04:04.963Z,74.32
2023-02-07T09:05:04.988Z,73.84
2023-02-07T09:06:04.951Z,72.74
2023-02-07T09:07:04.993Z,73.46
2023-02-07T09:08:04.949Z,73.57
2023-02-07T09:09:05.012Z,72.91
2023-02-07T09:10:04.916Z,71.59
2023-02-07T09:11:09.172Z,72.46
2023-02-07T09:12:05.936Z,70.67
2023-02-07T09:13:04.909Z,70.36
2023-02-07T09:14:04.908Z,71.52
2023-02-07T09:15:04.951Z,72.80
2023-02-07T09:16:04.887Z,74.80
2023-02-07T09:17:04.870Z,74.77
2023-02-07T09:18:04.873Z,73.74
2023-02-07T09:19:04.897Z,72.71
2023-02-07T09:20:04.844Z,70.84
2023-02-07T09:21:04.871Z,70.97
2023-02-07T09:22:04.834Z,71.00
2023-02-07T09:23:04.823Z,73.46
2023-02-07T09:24:04.808Z,72.97
2023-02-07T09:25:04.802Z,72.18
2023-02-07T09:26:04.828Z,71.45
2023-02-07T09:27:04.790Z,71.63
2023-02-07T09:28:04.786Z,70.59
2023-02-07T09:29:04.790Z,70.97
2023-02-07T09:30:04.788Z,72.38
2023-02-07T09:31:05.804Z,72.94
2023-02-07T09:32:05.774Z,71.87
2023-02-07T09:33:04.762Z,71.11
2023-02-07T09:34:04.748Z,71.01
2023-02-07T09:35:04.733Z,71.14
2023-02-07T09:36:04.794Z,71.42
2023-02-07T09:37:04.776Z,71.66
2023-02-07T09:38:04.700Z,71.18
2023-02-07T09:39:04.784Z,69.21
2023-02-07T09:40:04.689Z,70.18
2023-02-07T09:41:04.697Z,70.76
2023-02-07T09:42:05.563Z,71.52
2023-02-07T09:43:05.812Z,72.74
2023-02-07T09:44:04.770Z,70.62
2023-02-07T09:45:04.872Z,71.18
2023-02-07T09:46:05.316Z,72.28
2023-02-07T09:47:04.658Z,72.66
2023-02-07T09:48:04.647Z,72.66
2023-02-07T09:49:04.631Z,71.80
2023-02-07T09:50:04.618Z,71.73
2023-02-07T09:51:04.620Z,71.45
2023-02-07T09:52:04.596Z,72.76
2023-02-07T09:53:04.633Z,72.97
2023-02-07T09:54:04.603Z,71.53
2023-02-07T09:55:04.596Z,70.49
2023-02-07T09:56:04.578Z,70.69
2023-02-07T09:57:04.567Z,70.87
2023-02-07T09:58:04.600Z,70.87
2023-02-07T09:59:04.563Z,71.11
2023-02-07T10:00:04.541Z,71.31
2023-02-07T10:01:04.559Z,71.00
2023-02-07T10:02:04.505Z,70.69
2023-02-07T10:03:04.552Z,70.90
2023-02-07T10:04:04.488Z,70.80
2023-02-07T10:05:04.488Z,69.07
2023-02-07T10:06:17.526Z,69.31
2023-02-07T10:07:06.475Z,69.45
2023-02-07T10:08:04.511Z,69.06
2023-02-07T10:09:04.477Z,69.38
2023-02-07T10:10:04.441Z,67.03
2023-02-07T10:11:04.459Z,68.03
2023-02-07T10:12:04.432Z,69.49
2023-02-07T10:13:04.423Z,67.25
2023-02-07T10:14:04.460Z,66.53
2023-02-07T10:15:04.401Z,66.02
2023-02-07T10:16:04.439Z,66.00
2023-02-07T10:17:04.426Z,66.31
2023-02-07T10:18:04.403Z,66.65
2023-02-07T10:19:04.403Z,67.27
2023-02-07T10:20:04.361Z,67.82
2023-02-07T10:21:04.369Z,67.30
2023-02-07T10:22:04.358Z,67.51
2023-02-07T10:23:04.386Z,68.25
2023-02-07T10:24:04.356Z,66.29
2023-02-07T10:25:04.351Z,64.74
2023-02-07T10:26:04.361Z,64.98
2023-02-07T10:27:04.349Z,64.46
2023-02-07T10:28:04.353Z,63.95
2023-02-07T10:29:04.333Z,64.15
2023-02-07T10:30:04.276Z,64.65
2023-02-07T10:31:05.408Z,65.84
2023-02-07T10:32:04.336Z,66.00
2023-02-07T10:33:04.251Z,66.62
2023-02-07T10:34:04.268Z,66.47
2023-02-07T10:35:04.276Z,66.75
2023-02-07T10:36:04.266Z,65.52
2023-02-07T10:37:04.299Z,65.48
2023-02-07T10:38:04.233Z,65.69
2023-02-07T10:39:09.403Z,65.69
2023-02-07T10:40:06.230Z,65.69
2023-02-07T10:41:04.219Z,64.97
2023-02-07T10:42:04.199Z,65.07
2023-02-07T10:43:04.202Z,65.48
2023-02-07T10:44:04.175Z,65.31
2023-02-07T10:45:04.226Z,65.38
2023-02-07T10:46:06.557Z,64.56
2023-02-07T10:47:05.168Z,61.71
2023-02-07T10:48:04.190Z,61.30
2023-02-07T10:49:04.169Z,61.36
2023-02-07T10:50:04.169Z,62.67
2023-02-07T10:51:04.217Z,62.26
2023-02-07T10:52:04.141Z,62.16
2023-02-07T10:53:04.692Z,62.26
2023-02-07T10:54:04.112Z,61.51
2023-02-07T10:55:04.109Z,61.71
2023-02-07T10:56:04.101Z,62.44
2023-02-07T10:57:04.156Z,61.83
2023-02-07T10:58:17.693Z,63.10
2023-02-07T10:59:06.118Z,63.84
2023-02-07T11:00:04.056Z,62.81
2023-02-07T11:01:04.064Z,62.52
2023-02-07T11:02:04.092Z,62.84
2023-02-07T11:03:04.134Z,62.18
2023-02-07T11:04:04.052Z,61.15
2023-02-07T11:05:04.049Z,62.48
2023-02-07T11:06:04.090Z,62.81
2023-02-07T11:07:04.033Z,62.44
2023-02-07T11:08:04.074Z,62.44
2023-02-07T11:09:04.399Z,62.29
2023-02-07T11:10:03.995Z,63.46
2023-02-07T11:11:03.989Z,64.25
2023-02-07T11:12:04.024Z,63.40
2023-02-07T11:13:04.048Z,62.70
2023-02-07T11:14:04.045Z,62.91
2023-02-07T11:15:03.973Z,62.75
2023-02-07T11:16:04.214Z,62.43
2023-02-07T11:17:03.943Z,60.00
2023-02-07T11:18:03.954Z,58.71
2023-02-07T11:19:03.920Z,60.49
2023-02-07T11:20:03.926Z,60.83
2023-02-07T11:21:03.922Z,59.39
2023-02-07T11:22:03.907Z,61.27
2023-02-07T11:23:03.915Z,61.97
2023-02-07T11:24:03.916Z,62.48
2023-02-07T11:25:03.856Z,62.46
2023-02-07T11:26:03.855Z,60.49
2023-02-07T11:27:03.888Z,60.39
2023-02-07T11:28:03.900Z,60.42
2023-02-07T11:29:03.854Z,60.05
2023-02-07T11:30:03.834Z,60.47
2023-02-07T11:31:03.900Z,59.53
2023-02-07T11:32:03.805Z,58.71
2023-02-07T11:33:03.796Z,59.59
2023-02-07T11:34:03.818Z,60.47
2023-02-07T11:35:03.776Z,61.17
2023-02-07T11:36:03.793Z,60.60
2023-02-07T11:37:03.788Z,59.67
2023-02-07T11:38:04.777Z,59.07
2023-02-07T11:39:04.875Z,57.21
2023-02-07T11:40:03.770Z,57.60
2023-02-07T11:41:03.737Z,59.59
2023-02-07T11:42:03.741Z,59.49
2023-02-07T11:43:03.753Z,59.88
2023-02-07T11:44:03.711Z,59.64
2023-02-07T11:45:03.743Z,58.12
2023-02-07T11:46:03.702Z,58.38
2023-02-07T11:47:03.727Z,59.98
2023-02-07T11:48:03.678Z,58.87
2023-02-07T11:49:03.661Z,59.98
2023-02-07T11:50:03.697Z,59.80
2023-02-07T11:51:03.735Z,59.88
2023-02-07T11:52:03.647Z,59.05
2023-02-07T11:53:03.660Z,59.56
2023-02-07T11:54:03.659Z,59.08
2023-02-07T11:55:03.772Z,59.03
2023-02-07T11:56:03.638Z,60.58
2023-02-07T11:57:03.679Z,60.99
2023-02-07T11:58:03.618Z,60.89
2023-02-07T11:59:03.605Z,61.38
2023-02-07T12:00:03.617Z,61.11
2023-02-07T12:01:03.612Z,58.76
2023-02-07T12:02:03.635Z,60.30
2023-02-07T12:03:03.574Z,61.22
2023-02-07T12:04:03.698Z,61.02
2023-02-07T12:05:03.573Z,59.70
2023-02-07T12:06:03.606Z,60.63
2023-02-07T12:07:03.543Z,60.66
2023-02-07T12:08:03.613Z,60.63
2023-02-07T12:09:04.520Z,59.88
2023-02-07T12:10:03.537Z,59.67
2023-02-07T12:11:03.517Z,59.67
2023-02-07T12:12:03.491Z,58.82
2023-02-07T12:13:03.522Z,59.03
2023-02-07T12:14:03.491Z,59.62
2023-02-07T12:15:03.494Z,58.66
2023-02-07T12:16:03.535Z,58.45
2023-02-07T12:17:03.494Z,58.25
2023-02-07T12:18:03.475Z,57.65
2023-02-07T12:19:35.358Z,59.62
2023-02-07T12:20:03.463Z,59.23
2023-02-07T12:21:03.462Z,61.31
2023-02-07T12:22:03.436Z,61.86
2023-02-07T12:23:21.741Z,62.06
2023-02-07T12:24:05.425Z,61.83
2023-02-07T12:25:03.422Z,62.49
2023-02-07T12:26:03.417Z,61.54
2023-02-07T12:27:03.439Z,59.57
2023-02-07T12:28:03.403Z,59.47
2023-02-07T12:29:12.679Z,60.30
2023-02-07T12:30:05.423Z,60.01
2023-02-07T12:31:05.085Z,60.81
2023-02-07T12:32:03.454Z,59.91
2023-02-07T12:33:03.384Z,60.94
2023-02-07T12:34:03.352Z,60.81
2023-02-07T12:35:04.083Z,61.22
2023-02-07T12:36:03.930Z,61.12
2023-02-07T12:37:04.503Z,60.19
2023-02-07T12:38:04.332Z,61.25
2023-02-07T12:39:03.311Z,59.70
2023-02-07T12:40:03.322Z,60.71
2023-02-07T12:41:03.296Z,61.05
2023-02-07T12:42:03.311Z,61.49
2023-02-07T12:43:03.282Z,61.49
2023-02-07T12:44:04.283Z,60.87
2023-02-07T12:45:04.297Z,61.31
2023-02-07T12:46:03.351Z,62.32
2023-02-07T12:47:03.248Z,61.15
2023-02-07T12:48:03.228Z,61.46
2023-02-07T12:49:03.311Z,61.59
2023-02-07T12:50:03.242Z,60.81
2023-02-07T12:51:03.256Z,61.15
2023-02-07T12:52:03.250Z,60.81
2023-02-07T12:53:03.243Z,61.57
2023-02-07T12:54:03.199Z,61.46
2023-02-07T12:55:03.225Z,59.70
2023-02-07T12:56:03.228Z,60.82
2023-02-07T12:57:03.414Z,61.44
2023-02-07T12:58:03.160Z,62.37
2023-02-07T12:59:03.165Z,61.52
2023-02-07T13:00:03.188Z,61.38
2023-02-07T13:01:35.052Z,60.87
2023-02-07T13:02:03.208Z,60.58
2023-02-07T13:03:03.156Z,60.79
2023-02-07T13:04:03.108Z,60.48
2023-02-07T13:05:04.176Z,60.06
2023-02-07T13:06:03.098Z,60.17
2023-02-07T13:07:03.100Z,61.18